sensor_id;sensor_type;location;lat;lon;timestamp;P1;durP1;ratioP1;P2;durP2;ratioP2
1691;SDS011;843;52.054;8.552;2023-05-08T00:01:17;9.90;;;8.93;;
1691;SDS011;843;52.054;8.552;2023-05-08T00:03:44;10.77;;;9.63;;
1691;SDS011;843;52.054;8.552;2023-05-08T00:06:10;10.33;;;9.33;;
1691;SDS011;843;52.054;8.552;2023-05-08T00:08:38;10.80;;;9.70;;
1691;SDS011;843;52.054;8.552;2023-05-08T00:11:06;9.70;;;8.80;;
1691;SDS011;843;52.054;8.552;2023-05-08T00:13:32;10.33;;;9.33;;
1691;SDS011;843;52.054;8.552;2023-05-08T00:15:58;9.90;;;8.90;;
1691;SDS011;843;52.054;8.552;2023-05-08T00:18:25;10.83;;;9.77;;
1691;SDS011;843;52.054;8.552;2023-05-08T00:20:51;12.90;;;9.90;;
1691;SDS011;843;52.054;8.552;2023-05-08T00:23:18;9.10;;;8.20;;
1691;SDS011;843;52.054;8.552;2023-05-08T00:25:47;10.57;;;9.13;;
1691;SDS011;843;52.054;8.552;2023-05-08T00:28:14;10.30;;;9.40;;
1691;SDS011;843;52.054;8.552;2023-05-08T00:30:40;10.43;;;9.40;;
1691;SDS011;843;52.054;8.552;2023-05-08T00:33:07;16.20;;;9.87;;
1691;SDS011;843;52.054;8.552;2023-05-08T00:35:33;10.27;;;9.10;;
1691;SDS011;843;52.054;8.552;2023-05-08T00:37:59;10.13;;;9.13;;
1691;SDS011;843;52.054;8.552;2023-05-08T00:40:26;9.93;;;8.33;;
1691;SDS011;843;52.054;8.552;2023-05-08T00:42:54;10.17;;;9.17;;
1691;SDS011;843;52.054;8.552;2023-05-08T00:45:20;9.33;;;8.43;;
1691;SDS011;843;52.054;8.552;2023-05-08T00:47:47;9.50;;;8.53;;
1691;SDS011;843;52.054;8.552;2023-05-08T00:50:15;9.23;;;8.23;;
1691;SDS011;843;52.054;8.552;2023-05-08T00:52:42;10.60;;;9.50;;
1691;SDS011;843;52.054;8.552;2023-05-08T00:55:08;10.13;;;9.23;;
1691;SDS011;843;52.054;8.552;2023-05-08T00:57:35;10.83;;;9.70;;
1691;SDS011;843;52.054;8.552;2023-05-08T01:00:03;9.30;;;8.17;;
1691;SDS011;843;52.054;8.552;2023-05-08T01:02:31;12.30;;;9.50;;
1691;SDS011;843;52.054;8.552;2023-05-08T01:04:59;10.33;;;9.30;;
1691;SDS011;843;52.054;8.552;2023-05-08T01:07:25;10.23;;;9.30;;
1691;SDS011;843;52.054;8.552;2023-05-08T01:09:52;10.37;;;8.97;;
1691;SDS011;843;52.054;8.552;2023-05-08T01:12:19;10.50;;;9.50;;
1691;SDS011;843;52.054;8.552;2023-05-08T01:15:06;10.73;;;9.10;;
1691;SDS011;843;52.054;8.552;2023-05-08T01:17:42;10.70;;;9.60;;
1691;SDS011;843;52.054;8.552;2023-05-08T01:20:18;11.43;;;9.37;;
1691;SDS011;843;52.054;8.552;2023-05-08T01:25:49;11.77;;;9.67;;
1691;SDS011;843;52.054;8.552;2023-05-08T01:28:29;12.70;;;9.17;;
1691;SDS011;843;52.054;8.552;2023-05-08T01:31:10;11.43;;;9.73;;
1691;SDS011;843;52.054;8.552;2023-05-08T01:33:40;11.83;;;10.63;;
1691;SDS011;843;52.054;8.552;2023-05-08T01:36:10;14.97;;;10.63;;
1691;SDS011;843;52.054;8.552;2023-05-08T01:38:41;11.23;;;10.13;;
1691;SDS011;843;52.054;8.552;2023-05-08T01:41:13;10.80;;;9.70;;
1691;SDS011;843;52.054;8.552;2023-05-08T01:43:43;10.63;;;9.40;;
1691;SDS011;843;52.054;8.552;2023-05-08T01:46:16;11.03;;;9.80;;
1691;SDS011;843;52.054;8.552;2023-05-08T01:48:46;12.67;;;11.37;;
1691;SDS011;843;52.054;8.552;2023-05-08T01:51:16;10.73;;;9.43;;
1691;SDS011;843;52.054;8.552;2023-05-08T01:53:44;13.13;;;9.73;;
1691;SDS011;843;52.054;8.552;2023-05-08T01:56:13;10.60;;;9.60;;
1691;SDS011;843;52.054;8.552;2023-05-08T01:58:41;12.87;;;11.30;;
1691;SDS011;843;52.054;8.552;2023-05-08T02:01:08;9.97;;;8.90;;
1691;SDS011;843;52.054;8.552;2023-05-08T02:03:35;13.50;;;10.43;;
1691;SDS011;843;52.054;8.552;2023-05-08T02:06:04;11.90;;;10.80;;
1691;SDS011;843;52.054;8.552;2023-05-08T02:08:31;13.40;;;12.10;;
1691;SDS011;843;52.054;8.552;2023-05-08T02:10:59;12.73;;;11.37;;
1691;SDS011;843;52.054;8.552;2023-05-08T02:13:27;14.70;;;11.53;;
1691;SDS011;843;52.054;8.552;2023-05-08T02:15:54;14.80;;;10.97;;
1691;SDS011;843;52.054;8.552;2023-05-08T02:18:22;12.33;;;11.03;;
1691;SDS011;843;52.054;8.552;2023-05-08T02:20:49;11.57;;;10.37;;
1691;SDS011;843;52.054;8.552;2023-05-08T02:23:17;12.37;;;11.07;;
1691;SDS011;843;52.054;8.552;2023-05-08T02:25:44;14.30;;;12.53;;
1691;SDS011;843;52.054;8.552;2023-05-08T02:28:12;12.27;;;11.07;;
1691;SDS011;843;52.054;8.552;2023-05-08T02:30:39;13.70;;;10.40;;
1691;SDS011;843;52.054;8.552;2023-05-08T02:33:07;15.87;;;12.23;;
1691;SDS011;843;52.054;8.552;2023-05-08T02:35:35;14.90;;;11.60;;
1691;SDS011;843;52.054;8.552;2023-05-08T02:38:02;13.40;;;12.07;;
1691;SDS011;843;52.054;8.552;2023-05-08T02:40:30;14.57;;;13.03;;
1691;SDS011;843;52.054;8.552;2023-05-08T02:42:57;13.07;;;11.67;;
1691;SDS011;843;52.054;8.552;2023-05-08T02:45:24;13.57;;;11.30;;
1691;SDS011;843;52.054;8.552;2023-05-08T02:47:52;12.40;;;11.20;;
1691;SDS011;843;52.054;8.552;2023-05-08T02:50:21;14.20;;;12.00;;
1691;SDS011;843;52.054;8.552;2023-05-08T02:52:49;16.33;;;13.20;;
1691;SDS011;843;52.054;8.552;2023-05-08T02:55:28;13.10;;;11.47;;
1691;SDS011;843;52.054;8.552;2023-05-08T02:58:02;13.60;;;12.27;;
1691;SDS011;843;52.054;8.552;2023-05-08T03:00:31;14.77;;;12.77;;
1691;SDS011;843;52.054;8.552;2023-05-08T03:02:58;14.20;;;12.63;;
1691;SDS011;843;52.054;8.552;2023-05-08T03:05:27;16.00;;;13.43;;
1691;SDS011;843;52.054;8.552;2023-05-08T03:07:55;13.30;;;11.90;;
1691;SDS011;843;52.054;8.552;2023-05-08T03:10:23;15.40;;;13.47;;
1691;SDS011;843;52.054;8.552;2023-05-08T03:12:50;14.63;;;12.83;;
1691;SDS011;843;52.054;8.552;2023-05-08T03:15:20;17.53;;;13.23;;
1691;SDS011;843;52.054;8.552;2023-05-08T03:17:49;15.57;;;13.57;;
1691;SDS011;843;52.054;8.552;2023-05-08T03:20:17;14.63;;;12.33;;
1691;SDS011;843;52.054;8.552;2023-05-08T03:22:44;14.43;;;12.80;;
1691;SDS011;843;52.054;8.552;2023-05-08T03:25:12;18.40;;;14.00;;
1691;SDS011;843;52.054;8.552;2023-05-08T03:27:41;18.50;;;14.10;;
1691;SDS011;843;52.054;8.552;2023-05-08T03:30:09;15.80;;;14.17;;
1691;SDS011;843;52.054;8.552;2023-05-08T03:32:37;14.73;;;13.17;;
1691;SDS011;843;52.054;8.552;2023-05-08T03:35:04;15.67;;;12.97;;
1691;SDS011;843;52.054;8.552;2023-05-08T03:37:31;15.60;;;13.90;;
1691;SDS011;843;52.054;8.552;2023-05-08T03:39:58;14.57;;;13.00;;
1691;SDS011;843;52.054;8.552;2023-05-08T03:42:25;15.40;;;13.67;;
1691;SDS011;843;52.054;8.552;2023-05-08T03:44:52;16.00;;;13.97;;
1691;SDS011;843;52.054;8.552;2023-05-08T03:47:20;16.30;;;13.97;;
1691;SDS011;843;52.054;8.552;2023-05-08T03:49:48;15.80;;;14.10;;
1691;SDS011;843;52.054;8.552;2023-05-08T03:52:15;16.30;;;13.77;;
1691;SDS011;843;52.054;8.552;2023-05-08T03:54:41;16.57;;;14.77;;
1691;SDS011;843;52.054;8.552;2023-05-08T03:57:08;16.57;;;14.77;;
1691;SDS011;843;52.054;8.552;2023-05-08T03:59:37;16.43;;;14.50;;
1691;SDS011;843;52.054;8.552;2023-05-08T04:02:08;17.10;;;14.60;;
1691;SDS011;843;52.054;8.552;2023-05-08T04:04:38;17.90;;;13.53;;
1691;SDS011;843;52.054;8.552;2023-05-08T04:07:06;14.50;;;13.00;;
1691;SDS011;843;52.054;8.552;2023-05-08T04:09:35;14.53;;;13.03;;
1691;SDS011;843;52.054;8.552;2023-05-08T04:12:03;17.40;;;14.20;;
1691;SDS011;843;52.054;8.552;2023-05-08T04:14:30;16.70;;;14.83;;
1691;SDS011;843;52.054;8.552;2023-05-08T04:17:00;18.07;;;14.20;;
1691;SDS011;843;52.054;8.552;2023-05-08T04:19:28;16.33;;;14.37;;
1691;SDS011;843;52.054;8.552;2023-05-08T04:21:56;15.50;;;14.00;;
1691;SDS011;843;52.054;8.552;2023-05-08T04:24:26;18.27;;;14.60;;
1691;SDS011;843;52.054;8.552;2023-05-08T04:26:54;15.70;;;13.27;;
1691;SDS011;843;52.054;8.552;2023-05-08T04:29:20;17.03;;;15.20;;
1691;SDS011;843;52.054;8.552;2023-05-08T04:31:47;15.93;;;13.77;;
1691;SDS011;843;52.054;8.552;2023-05-08T04:34:14;16.70;;;13.50;;
1691;SDS011;843;52.054;8.552;2023-05-08T04:36:42;15.40;;;13.80;;
1691;SDS011;843;52.054;8.552;2023-05-08T04:39:08;17.87;;;15.93;;
1691;SDS011;843;52.054;8.552;2023-05-08T04:41:36;15.97;;;14.17;;
1691;SDS011;843;52.054;8.552;2023-05-08T04:44:02;18.43;;;14.40;;
1691;SDS011;843;52.054;8.552;2023-05-08T04:46:29;15.50;;;13.90;;
1691;SDS011;843;52.054;8.552;2023-05-08T04:48:56;17.87;;;15.40;;
1691;SDS011;843;52.054;8.552;2023-05-08T04:51:22;18.17;;;14.87;;
1691;SDS011;843;52.054;8.552;2023-05-08T04:53:49;16.67;;;14.47;;
1691;SDS011;843;52.054;8.552;2023-05-08T04:56:15;15.20;;;13.60;;
1691;SDS011;843;52.054;8.552;2023-05-08T04:58:44;16.27;;;14.57;;
1691;SDS011;843;52.054;8.552;2023-05-08T05:01:11;19.60;;;13.80;;
1691;SDS011;843;52.054;8.552;2023-05-08T05:03:38;18.43;;;14.17;;
1691;SDS011;843;52.054;8.552;2023-05-08T05:06:04;13.87;;;12.43;;
1691;SDS011;843;52.054;8.552;2023-05-08T05:08:31;14.10;;;12.70;;
1691;SDS011;843;52.054;8.552;2023-05-08T05:10:57;14.67;;;13.17;;
1691;SDS011;843;52.054;8.552;2023-05-08T05:13:23;15.27;;;13.87;;
1691;SDS011;843;52.054;8.552;2023-05-08T05:15:51;13.70;;;11.93;;
1691;SDS011;843;52.054;8.552;2023-05-08T05:18:18;14.50;;;12.93;;
1691;SDS011;843;52.054;8.552;2023-05-08T05:20:44;13.27;;;11.73;;
1691;SDS011;843;52.054;8.552;2023-05-08T05:23:11;12.77;;;11.57;;
1691;SDS011;843;52.054;8.552;2023-05-08T05:25:38;13.33;;;12.03;;
1691;SDS011;843;52.054;8.552;2023-05-08T05:28:04;13.03;;;11.70;;
1691;SDS011;843;52.054;8.552;2023-05-08T05:30:31;12.17;;;11.03;;
1691;SDS011;843;52.054;8.552;2023-05-08T05:32:59;14.07;;;12.77;;
1691;SDS011;843;52.054;8.552;2023-05-08T05:35:25;14.23;;;12.90;;
1691;SDS011;843;52.054;8.552;2023-05-08T05:37:51;13.87;;;12.60;;
1691;SDS011;843;52.054;8.552;2023-05-08T05:40:18;14.13;;;12.73;;
1691;SDS011;843;52.054;8.552;2023-05-08T05:42:47;13.43;;;12.10;;
1691;SDS011;843;52.054;8.552;2023-05-08T05:45:13;13.33;;;12.13;;
1691;SDS011;843;52.054;8.552;2023-05-08T05:47:43;14.07;;;12.67;;
1691;SDS011;843;52.054;8.552;2023-05-08T05:50:11;12.50;;;11.30;;
1691;SDS011;843;52.054;8.552;2023-05-08T05:52:37;13.37;;;12.07;;
1691;SDS011;843;52.054;8.552;2023-05-08T05:55:04;14.20;;;12.90;;
1691;SDS011;843;52.054;8.552;2023-05-08T05:57:30;12.90;;;11.70;;
1691;SDS011;843;52.054;8.552;2023-05-08T05:59:57;12.87;;;11.60;;
1691;SDS011;843;52.054;8.552;2023-05-08T06:02:24;12.90;;;11.43;;
1691;SDS011;843;52.054;8.552;2023-05-08T06:04:51;12.10;;;10.97;;
1691;SDS011;843;52.054;8.552;2023-05-08T06:07:19;13.33;;;12.00;;
1691;SDS011;843;52.054;8.552;2023-05-08T06:09:45;13.20;;;12.00;;
1691;SDS011;843;52.054;8.552;2023-05-08T06:12:12;13.83;;;12.43;;
1691;SDS011;843;52.054;8.552;2023-05-08T06:14:38;12.23;;;11.07;;
1691;SDS011;843;52.054;8.552;2023-05-08T06:17:05;13.27;;;12.17;;
1691;SDS011;843;52.054;8.552;2023-05-08T06:19:31;12.67;;;11.47;;
1691;SDS011;843;52.054;8.552;2023-05-08T06:21:58;13.50;;;12.07;;
1691;SDS011;843;52.054;8.552;2023-05-08T06:24:25;11.90;;;10.80;;
1691;SDS011;843;52.054;8.552;2023-05-08T06:26:52;12.70;;;11.60;;
1691;SDS011;843;52.054;8.552;2023-05-08T06:29:18;12.67;;;11.47;;
1691;SDS011;843;52.054;8.552;2023-05-08T06:31:46;12.90;;;11.60;;
1691;SDS011;843;52.054;8.552;2023-05-08T06:34:12;15.40;;;13.90;;
1691;SDS011;843;52.054;8.552;2023-05-08T06:36:38;13.47;;;12.17;;
1691;SDS011;843;52.054;8.552;2023-05-08T06:39:05;13.27;;;11.97;;
1691;SDS011;843;52.054;8.552;2023-05-08T06:41:33;13.70;;;12.50;;
1691;SDS011;843;52.054;8.552;2023-05-08T06:43:59;13.23;;;12.03;;
1691;SDS011;843;52.054;8.552;2023-05-08T06:46:26;13.57;;;12.17;;
1691;SDS011;843;52.054;8.552;2023-05-08T06:48:53;13.50;;;12.30;;
1691;SDS011;843;52.054;8.552;2023-05-08T06:51:20;14.37;;;13.07;;
1691;SDS011;843;52.054;8.552;2023-05-08T06:53:47;13.00;;;11.80;;
1691;SDS011;843;52.054;8.552;2023-05-08T06:56:13;14.40;;;13.00;;
1691;SDS011;843;52.054;8.552;2023-05-08T06:58:41;14.07;;;12.67;;
1691;SDS011;843;52.054;8.552;2023-05-08T07:01:07;13.73;;;12.43;;
1691;SDS011;843;52.054;8.552;2023-05-08T07:03:34;14.03;;;12.83;;
1691;SDS011;843;52.054;8.552;2023-05-08T07:06:01;13.70;;;12.40;;
1691;SDS011;843;52.054;8.552;2023-05-08T07:08:27;14.63;;;13.20;;
1691;SDS011;843;52.054;8.552;2023-05-08T07:10:54;14.63;;;13.30;;
1691;SDS011;843;52.054;8.552;2023-05-08T07:13:20;14.43;;;12.93;;
1691;SDS011;843;52.054;8.552;2023-05-08T07:15:48;13.53;;;12.03;;
1691;SDS011;843;52.054;8.552;2023-05-08T07:18:15;14.60;;;13.17;;
1691;SDS011;843;52.054;8.552;2023-05-08T07:20:41;12.50;;;11.20;;
1691;SDS011;843;52.054;8.552;2023-05-08T07:23:08;13.90;;;12.50;;
1691;SDS011;843;52.054;8.552;2023-05-08T07:25:34;12.87;;;11.60;;
1691;SDS011;843;52.054;8.552;2023-05-08T07:28:01;13.13;;;11.80;;
1691;SDS011;843;52.054;8.552;2023-05-08T07:30:27;12.73;;;11.43;;
1691;SDS011;843;52.054;8.552;2023-05-08T07:32:55;16.03;;;13.63;;
1691;SDS011;843;52.054;8.552;2023-05-08T07:35:22;20.93;;;12.27;;
1691;SDS011;843;52.054;8.552;2023-05-08T07:37:48;14.47;;;13.07;;
1691;SDS011;843;52.054;8.552;2023-05-08T07:40:15;13.77;;;12.47;;
1691;SDS011;843;52.054;8.552;2023-05-08T07:42:42;13.87;;;12.17;;
1691;SDS011;843;52.054;8.552;2023-05-08T07:45:09;13.33;;;12.13;;
1691;SDS011;843;52.054;8.552;2023-05-08T07:47:36;12.87;;;11.57;;
1691;SDS011;843;52.054;8.552;2023-05-08T07:50:05;13.60;;;12.20;;
1691;SDS011;843;52.054;8.552;2023-05-08T07:52:32;13.07;;;11.77;;
1691;SDS011;843;52.054;8.552;2023-05-08T07:54:58;14.40;;;13.13;;
1691;SDS011;843;52.054;8.552;2023-05-08T07:57:24;13.47;;;11.53;;
1691;SDS011;843;52.054;8.552;2023-05-08T07:59:51;13.30;;;12.10;;
1691;SDS011;843;52.054;8.552;2023-05-08T08:02:18;16.90;;;12.43;;
1691;SDS011;843;52.054;8.552;2023-05-08T08:04:44;13.10;;;11.80;;
1691;SDS011;843;52.054;8.552;2023-05-08T08:07:12;12.40;;;11.03;;
1691;SDS011;843;52.054;8.552;2023-05-08T08:09:38;12.70;;;11.50;;
1691;SDS011;843;52.054;8.552;2023-05-08T08:12:05;14.23;;;11.93;;
1691;SDS011;843;52.054;8.552;2023-05-08T08:14:31;12.50;;;11.30;;
1691;SDS011;843;52.054;8.552;2023-05-08T08:16:58;12.00;;;10.97;;
1691;SDS011;843;52.054;8.552;2023-05-08T08:19:24;12.30;;;11.23;;
1691;SDS011;843;52.054;8.552;2023-05-08T08:21:51;12.97;;;11.87;;
1691;SDS011;843;52.054;8.552;2023-05-08T08:24:19;11.80;;;10.80;;
1691;SDS011;843;52.054;8.552;2023-05-08T08:26:45;12.60;;;11.43;;
1691;SDS011;843;52.054;8.552;2023-05-08T08:29:12;12.63;;;11.50;;
1691;SDS011;843;52.054;8.552;2023-05-08T08:31:38;13.10;;;11.80;;
1691;SDS011;843;52.054;8.552;2023-05-08T08:34:04;13.83;;;12.63;;
1691;SDS011;843;52.054;8.552;2023-05-08T08:36:31;12.57;;;11.50;;
1691;SDS011;843;52.054;8.552;2023-05-08T08:38:58;12.80;;;11.63;;
1691;SDS011;843;52.054;8.552;2023-05-08T08:41:26;11.63;;;10.53;;
1691;SDS011;843;52.054;8.552;2023-05-08T08:43:53;11.90;;;10.93;;
1691;SDS011;843;52.054;8.552;2023-05-08T08:46:22;12.23;;;11.23;;
1691;SDS011;843;52.054;8.552;2023-05-08T08:48:49;11.40;;;10.40;;
1691;SDS011;843;52.054;8.552;2023-05-08T08:51:17;10.53;;;9.47;;
1691;SDS011;843;52.054;8.552;2023-05-08T08:53:48;12.47;;;11.47;;
1691;SDS011;843;52.054;8.552;2023-05-08T08:56:16;13.53;;;12.13;;
1691;SDS011;843;52.054;8.552;2023-05-08T08:58:46;12.37;;;11.27;;
1691;SDS011;843;52.054;8.552;2023-05-08T09:01:15;14.17;;;12.03;;
1691;SDS011;843;52.054;8.552;2023-05-08T09:03:42;12.33;;;11.20;;
1691;SDS011;843;52.054;8.552;2023-05-08T09:06:09;11.27;;;10.13;;
1691;SDS011;843;52.054;8.552;2023-05-08T09:08:36;10.47;;;9.57;;
1691;SDS011;843;52.054;8.552;2023-05-08T09:11:02;12.97;;;11.87;;
1691;SDS011;843;52.054;8.552;2023-05-08T09:13:29;13.73;;;12.33;;
1691;SDS011;843;52.054;8.552;2023-05-08T09:15:57;12.70;;;11.33;;
1691;SDS011;843;52.054;8.552;2023-05-08T09:18:24;12.60;;;11.50;;
1691;SDS011;843;52.054;8.552;2023-05-08T09:20:50;13.10;;;11.90;;
1691;SDS011;843;52.054;8.552;2023-05-08T09:23:17;13.33;;;12.13;;
1691;SDS011;843;52.054;8.552;2023-05-08T09:25:44;12.73;;;11.50;;
1691;SDS011;843;52.054;8.552;2023-05-08T09:28:14;12.53;;;11.33;;
1691;SDS011;843;52.054;8.552;2023-05-08T09:30:47;13.27;;;12.07;;
1691;SDS011;843;52.054;8.552;2023-05-08T09:33:15;12.17;;;10.97;;
1691;SDS011;843;52.054;8.552;2023-05-08T09:35:41;12.90;;;11.60;;
1691;SDS011;843;52.054;8.552;2023-05-08T09:38:08;11.57;;;10.57;;
1691;SDS011;843;52.054;8.552;2023-05-08T09:40:35;10.83;;;9.93;;
1691;SDS011;843;52.054;8.552;2023-05-08T09:43:11;11.40;;;10.40;;
1691;SDS011;843;52.054;8.552;2023-05-08T09:45:38;11.67;;;10.67;;
1691;SDS011;843;52.054;8.552;2023-05-08T09:48:05;12.63;;;10.67;;
1691;SDS011;843;52.054;8.552;2023-05-08T09:50:33;14.20;;;12.80;;
1691;SDS011;843;52.054;8.552;2023-05-08T09:52:59;11.87;;;10.87;;
1691;SDS011;843;52.054;8.552;2023-05-08T09:55:26;10.50;;;9.50;;
1691;SDS011;843;52.054;8.552;2023-05-08T09:57:53;9.80;;;8.90;;
1691;SDS011;843;52.054;8.552;2023-05-08T10:00:20;11.27;;;10.27;;
1691;SDS011;843;52.054;8.552;2023-05-08T10:02:53;12.30;;;9.90;;
1691;SDS011;843;52.054;8.552;2023-05-08T10:05:23;11.40;;;10.43;;
1691;SDS011;843;52.054;8.552;2023-05-08T10:07:52;13.63;;;12.33;;
1691;SDS011;843;52.054;8.552;2023-05-08T10:10:21;12.23;;;11.23;;
1691;SDS011;843;52.054;8.552;2023-05-08T10:12:47;11.00;;;9.90;;
1691;SDS011;843;52.054;8.552;2023-05-08T10:15:14;10.30;;;9.40;;
1691;SDS011;843;52.054;8.552;2023-05-08T10:17:43;10.90;;;9.77;;
1691;SDS011;843;52.054;8.552;2023-05-08T10:20:10;9.87;;;9.07;;
1691;SDS011;843;52.054;8.552;2023-05-08T10:22:37;12.63;;;11.50;;
1691;SDS011;843;52.054;8.552;2023-05-08T10:25:11;13.17;;;11.80;;
1691;SDS011;843;52.054;8.552;2023-05-08T10:27:43;11.60;;;10.60;;
1691;SDS011;843;52.054;8.552;2023-05-08T10:30:11;10.60;;;9.70;;
1691;SDS011;843;52.054;8.552;2023-05-08T10:32:39;13.10;;;11.90;;
1691;SDS011;843;52.054;8.552;2023-05-08T10:35:08;11.40;;;10.40;;
1691;SDS011;843;52.054;8.552;2023-05-08T10:37:36;9.60;;;8.80;;
1691;SDS011;843;52.054;8.552;2023-05-08T10:40:03;13.20;;;11.57;;
1691;SDS011;843;52.054;8.552;2023-05-08T10:42:32;10.40;;;9.40;;
1691;SDS011;843;52.054;8.552;2023-05-08T10:44:59;13.47;;;12.27;;
1691;SDS011;843;52.054;8.552;2023-05-08T10:47:26;11.23;;;10.13;;
1691;SDS011;843;52.054;8.552;2023-05-08T10:49:57;12.20;;;10.90;;
1691;SDS011;843;52.054;8.552;2023-05-08T10:52:27;10.50;;;9.60;;
1691;SDS011;843;52.054;8.552;2023-05-08T10:55:08;11.70;;;10.80;;
1691;SDS011;843;52.054;8.552;2023-05-08T10:57:48;12.00;;;10.90;;
1691;SDS011;843;52.054;8.552;2023-05-08T11:00:29;11.20;;;10.10;;
1691;SDS011;843;52.054;8.552;2023-05-08T11:03:03;12.57;;;11.40;;
1691;SDS011;843;52.054;8.552;2023-05-08T11:05:30;11.70;;;10.60;;
1691;SDS011;843;52.054;8.552;2023-05-08T11:07:57;12.70;;;11.50;;
1691;SDS011;843;52.054;8.552;2023-05-08T11:10:28;11.27;;;10.20;;
1691;SDS011;843;52.054;8.552;2023-05-08T11:12:56;12.00;;;10.90;;
1691;SDS011;843;52.054;8.552;2023-05-08T11:15:34;13.07;;;11.80;;
1691;SDS011;843;52.054;8.552;2023-05-08T11:18:02;12.13;;;11.03;;
1691;SDS011;843;52.054;8.552;2023-05-08T11:20:36;12.57;;;11.37;;
1691;SDS011;843;52.054;8.552;2023-05-08T11:25:44;12.37;;;10.83;;
1691;SDS011;843;52.054;8.552;2023-05-08T11:28:12;11.17;;;10.07;;
1691;SDS011;843;52.054;8.552;2023-05-08T11:30:42;12.40;;;11.20;;
1691;SDS011;843;52.054;8.552;2023-05-08T11:33:12;13.50;;;12.20;;
1691;SDS011;843;52.054;8.552;2023-05-08T11:35:40;11.90;;;10.80;;
1691;SDS011;843;52.054;8.552;2023-05-08T11:38:10;12.67;;;11.43;;
1691;SDS011;843;52.054;8.552;2023-05-08T11:40:49;11.67;;;10.57;;
1691;SDS011;843;52.054;8.552;2023-05-08T11:43:31;13.03;;;11.83;;
1691;SDS011;843;52.054;8.552;2023-05-08T11:46:01;11.47;;;10.37;;
1691;SDS011;843;52.054;8.552;2023-05-08T11:48:28;14.50;;;13.13;;
1691;SDS011;843;52.054;8.552;2023-05-08T11:50:54;12.83;;;10.97;;
1691;SDS011;843;52.054;8.552;2023-05-08T11:53:21;12.60;;;11.00;;
1691;SDS011;843;52.054;8.552;2023-05-08T11:55:48;14.63;;;11.20;;
1691;SDS011;843;52.054;8.552;2023-05-08T11:58:14;12.23;;;10.40;;
1691;SDS011;843;52.054;8.552;2023-05-08T12:00:43;10.57;;;9.53;;
1691;SDS011;843;52.054;8.552;2023-05-08T12:03:13;11.07;;;10.03;;
1691;SDS011;843;52.054;8.552;2023-05-08T12:05:39;13.17;;;11.10;;
1691;SDS011;843;52.054;8.552;2023-05-08T12:08:06;12.43;;;11.23;;
1691;SDS011;843;52.054;8.552;2023-05-08T12:10:37;11.03;;;10.03;;
1691;SDS011;843;52.054;8.552;2023-05-08T12:13:13;12.33;;;11.17;;
1691;SDS011;843;52.054;8.552;2023-05-08T12:15:40;11.90;;;10.80;;
1691;SDS011;843;52.054;8.552;2023-05-08T12:18:08;12.07;;;10.00;;
1691;SDS011;843;52.054;8.552;2023-05-08T12:20:34;10.03;;;9.10;;
1691;SDS011;843;52.054;8.552;2023-05-08T12:23:01;10.90;;;9.90;;
1691;SDS011;843;52.054;8.552;2023-05-08T12:25:27;11.63;;;10.53;;
1691;SDS011;843;52.054;8.552;2023-05-08T12:27:54;10.83;;;9.93;;
1691;SDS011;843;52.054;8.552;2023-05-08T12:30:21;11.87;;;10.87;;
1691;SDS011;843;52.054;8.552;2023-05-08T12:32:48;13.20;;;12.00;;
1691;SDS011;843;52.054;8.552;2023-05-08T12:35:16;11.17;;;10.17;;
1691;SDS011;843;52.054;8.552;2023-05-08T12:37:43;13.00;;;11.80;;
1691;SDS011;843;52.054;8.552;2023-05-08T12:40:21;12.60;;;11.50;;
1691;SDS011;843;52.054;8.552;2023-05-08T12:42:49;11.50;;;9.83;;
1691;SDS011;843;52.054;8.552;2023-05-08T12:45:16;12.13;;;10.93;;
1691;SDS011;843;52.054;8.552;2023-05-08T12:47:47;11.90;;;10.70;;
1691;SDS011;843;52.054;8.552;2023-05-08T12:50:13;11.70;;;10.70;;
1691;SDS011;843;52.054;8.552;2023-05-08T12:52:42;12.37;;;11.20;;
1691;SDS011;843;52.054;8.552;2023-05-08T12:55:21;10.73;;;9.77;;
1691;SDS011;843;52.054;8.552;2023-05-08T12:57:48;12.87;;;11.00;;
1691;SDS011;843;52.054;8.552;2023-05-08T13:00:16;11.80;;;10.70;;
1691;SDS011;843;52.054;8.552;2023-05-08T13:02:50;11.13;;;9.90;;
1691;SDS011;843;52.054;8.552;2023-05-08T13:05:17;10.93;;;9.97;;
1691;SDS011;843;52.054;8.552;2023-05-08T13:07:46;9.93;;;9.00;;
1691;SDS011;843;52.054;8.552;2023-05-08T13:10:12;11.40;;;10.40;;
1691;SDS011;843;52.054;8.552;2023-05-08T13:12:39;9.70;;;8.80;;
1691;SDS011;843;52.054;8.552;2023-05-08T13:15:05;11.30;;;10.30;;
1691;SDS011;843;52.054;8.552;2023-05-08T13:17:32;10.43;;;9.53;;
1691;SDS011;843;52.054;8.552;2023-05-08T13:19:58;11.50;;;10.27;;
1691;SDS011;843;52.054;8.552;2023-05-08T13:22:27;9.60;;;8.77;;
1691;SDS011;843;52.054;8.552;2023-05-08T13:24:55;9.87;;;8.97;;
1691;SDS011;843;52.054;8.552;2023-05-08T13:27:21;9.07;;;8.27;;
1691;SDS011;843;52.054;8.552;2023-05-08T13:29:48;9.03;;;8.23;;
1691;SDS011;843;52.054;8.552;2023-05-08T13:32:14;9.57;;;8.67;;
1691;SDS011;843;52.054;8.552;2023-05-08T13:34:41;9.97;;;9.07;;
1691;SDS011;843;52.054;8.552;2023-05-08T13:37:07;8.40;;;7.70;;
1691;SDS011;843;52.054;8.552;2023-05-08T13:39:33;9.40;;;8.47;;
1691;SDS011;843;52.054;8.552;2023-05-08T13:42:03;8.90;;;8.10;;
1691;SDS011;843;52.054;8.552;2023-05-08T13:44:29;10.60;;;9.60;;
1691;SDS011;843;52.054;8.552;2023-05-08T13:46:56;8.60;;;7.70;;
1691;SDS011;843;52.054;8.552;2023-05-08T13:49:23;8.50;;;7.60;;
1691;SDS011;843;52.054;8.552;2023-05-08T13:51:50;9.70;;;8.70;;
1691;SDS011;843;52.054;8.552;2023-05-08T13:54:16;8.87;;;7.97;;
1691;SDS011;843;52.054;8.552;2023-05-08T13:56:43;9.17;;;8.27;;
1691;SDS011;843;52.054;8.552;2023-05-08T13:59:11;6.80;;;6.17;;
1691;SDS011;843;52.054;8.552;2023-05-08T14:01:37;8.63;;;7.30;;
1691;SDS011;843;52.054;8.552;2023-05-08T14:04:04;8.07;;;7.37;;
1691;SDS011;843;52.054;8.552;2023-05-08T14:06:30;9.03;;;8.30;;
1691;SDS011;843;52.054;8.552;2023-05-08T14:08:57;7.53;;;6.83;;
1691;SDS011;843;52.054;8.552;2023-05-08T14:11:23;10.03;;;7.60;;
1691;SDS011;843;52.054;8.552;2023-05-08T14:13:50;9.47;;;8.57;;
1691;SDS011;843;52.054;8.552;2023-05-08T14:16:19;7.60;;;7.00;;
1691;SDS011;843;52.054;8.552;2023-05-08T14:18:45;8.40;;;7.70;;
1691;SDS011;843;52.054;8.552;2023-05-08T14:21:11;8.03;;;7.33;;
1691;SDS011;843;52.054;8.552;2023-05-08T14:23:38;10.13;;;7.60;;
1691;SDS011;843;52.054;8.552;2023-05-08T14:26:05;9.07;;;8.27;;
1691;SDS011;843;52.054;8.552;2023-05-08T14:28:31;8.47;;;7.67;;
1691;SDS011;843;52.054;8.552;2023-05-08T14:30:58;6.80;;;6.20;;
1691;SDS011;843;52.054;8.552;2023-05-08T14:33:26;8.03;;;7.33;;
1691;SDS011;843;52.054;8.552;2023-05-08T14:35:52;7.80;;;7.10;;
1691;SDS011;843;52.054;8.552;2023-05-08T14:38:18;8.27;;;7.47;;
1691;SDS011;843;52.054;8.552;2023-05-08T14:40:47;11.43;;;7.60;;
1691;SDS011;843;52.054;8.552;2023-05-08T14:43:14;8.17;;;7.37;;
1691;SDS011;843;52.054;8.552;2023-05-08T14:45:41;7.20;;;6.50;;
1691;SDS011;843;52.054;8.552;2023-05-08T14:48:07;8.30;;;6.90;;
1691;SDS011;843;52.054;8.552;2023-05-08T14:50:35;8.60;;;7.80;;
1691;SDS011;843;52.054;8.552;2023-05-08T14:53:02;7.60;;;7.00;;
1691;SDS011;843;52.054;8.552;2023-05-08T14:55:28;8.17;;;7.43;;
1691;SDS011;843;52.054;8.552;2023-05-08T14:57:55;8.80;;;7.03;;
1691;SDS011;843;52.054;8.552;2023-05-08T15:00:21;7.77;;;6.60;;
1691;SDS011;843;52.054;8.552;2023-05-08T15:02:48;7.20;;;6.60;;
1691;SDS011;843;52.054;8.552;2023-05-08T15:05:14;6.70;;;6.10;;
1691;SDS011;843;52.054;8.552;2023-05-08T15:07:42;6.80;;;6.20;;
1691;SDS011;843;52.054;8.552;2023-05-08T15:10:09;7.63;;;6.57;;
1691;SDS011;843;52.054;8.552;2023-05-08T15:12:35;18.33;;;8.40;;
1691;SDS011;843;52.054;8.552;2023-05-08T15:15:02;7.67;;;6.97;;
1691;SDS011;843;52.054;8.552;2023-05-08T15:17:29;8.37;;;7.57;;